Time;durP1;ratioP1;P1;durP2;ratioP2;P2;SDS_P1;SDS_P2;PMS_P1;PMS_P2;Temp;Humidity;BMP_temperature;BMP_pressure;BME280_temperature;BME280_humidity;BME280_pressure;Samples;Min_cycle;Max_cycle;Signal;HPM_P1;HPM_P2
2023/08/29 00:02:04;;;;;;;0.17;0.17;;;;;;;;;;6216287;23;20115;-89
2023/08/29 00:04:31;;;;;;;0.20;0.20;;;;;;;;;;6191284;23;20016;-88
2023/08/29 00:06:59;;;;;;;0.30;0.30;;;;;;;;;;6218574;23;20063;-89
2023/08/29 00:09:43;;;;;;;0.32;0.32;;;;;;;;;;6240683;23;20087;-89
2023/08/29 00:12:09;;;;;;;0.30;0.30;;;;;;;;;;6193580;23;20028;-90
2023/08/29 00:14:35;;;;;;;0.20;0.20;;;;;;;;;;6218292;23;20016;-88
2023/08/29 00:17:05;;;;;;;0.30;0.30;;;;;;;;;;6220337;23;20072;-89
2023/08/29 00:19:33;;;;;;;0.20;0.20;;;;;;;;;;6219329;23;20092;-87
2023/08/29 00:22:00;;;;;;;0.20;0.20;;;;;;;;;;6216423;23;20577;-87
2023/08/29 00:24:29;;;;;;;0.30;0.30;;;;;;;;;;6242199;23;20015;-88
2023/08/29 00:26:55;;;;;;;0.28;0.28;;;;;;;;;;6217161;23;20041;-88
2023/08/29 00:29:21;;;;;;;0.30;0.30;;;;;;;;;;6218147;23;20067;-88
2023/08/29 00:31:48;;;;;;;0.20;0.20;;;;;;;;;;6219675;23;20068;-88
2023/08/29 00:34:14;;;;;;;0.40;0.40;;;;;;;;;;6219096;23;20020;-87
2023/08/29 00:36:43;;;;;;;0.25;0.25;;;;;;;;;;6243233;23;20016;-87
2023/08/29 00:39:24;;;;;;;0.20;0.20;;;;;;;;;;6243091;23;20004;-88
2023/08/29 00:41:51;;;;;;;0.20;0.20;;;;;;;;;;6216930;23;20034;-88
2023/08/29 00:44:17;;;;;;;0.20;0.20;;;;;;;;;;6217556;23;20016;-89
2023/08/29 00:46:45;;;;;;;0.25;0.25;;;;;;;;;;6192975;23;20044;-88
2023/08/29 00:49:14;;;;;;;0.30;0.30;;;;;;;;;;6217432;23;20016;-89
2023/08/29 00:51:43;;;;;;;0.30;0.30;;;;;;;;;;6245650;23;20020;-88
2023/08/29 00:54:10;;;;;;;0.20;0.20;;;;;;;;;;6242263;23;20411;-88
2023/08/29 00:56:49;;;;;;;0.20;0.20;;;;;;;;;;6220455;23;20012;-89
2023/08/29 00:59:26;;;;;;;0.20;0.20;;;;;;;;;;6270046;23;20016;-89
2023/08/29 01:01:54;;;;;;;0.20;0.20;;;;;;;;;;6219338;23;20016;-89
2023/08/29 01:04:22;;;;;;;0.30;0.30;;;;;;;;;;6243433;23;20016;-89
2023/08/29 01:06:48;;;;;;;0.20;0.20;;;;;;;;;;6217635;23;20016;-87
2023/08/29 01:09:14;;;;;;;0.30;0.30;;;;;;;;;;6215984;23;20020;-86
2023/08/29 01:12:20;;;;;;;0.20;0.20;;;;;;;;;;6218407;23;20027;-88
2023/08/29 01:14:46;;;;;;;;;;;;;;;;;;6218100;23;20030;-88
2023/08/29 01:17:19;;;;;;;0.20;0.20;;;;;;;;;;6217827;23;20372;-90
2023/08/29 01:19:51;;;;;;;0.20;0.20;;;;;;;;;;6218925;23;20042;-89
2023/08/29 01:22:30;;;;;;;0.20;0.20;;;;;;;;;;6218722;23;20068;-88
2023/08/29 01:25:16;;;;;;;0.30;0.30;;;;;;;;;;6217906;23;20040;-89
2023/08/29 01:27:50;;;;;;;0.20;0.20;;;;;;;;;;6242574;23;20010;-89
2023/08/29 01:30:17;;;;;;;0.30;0.30;;;;;;;;;;6217159;23;20011;-89
2023/08/29 01:32:44;;;;;;;0.20;0.20;;;;;;;;;;6217751;23;20071;-88
2023/08/29 01:35:15;;;;;;;0.40;0.40;;;;;;;;;;6217396;23;20051;-89
2023/08/29 01:37:43;;;;;;;0.30;0.30;;;;;;;;;;6218030;23;20027;-88
2023/08/29 01:40:11;;;;;;;0.30;0.30;;;;;;;;;;6241246;23;20068;-88
2023/08/29 01:42:38;;;;;;;0.17;0.17;;;;;;;;;;6192359;23;20007;-88
2023/08/29 01:45:16;;;;;;;0.20;0.20;;;;;;;;;;6243496;23;20016;-89
2023/08/29 01:47:42;;;;;;;0.20;0.20;;;;;;;;;;6192365;23;20016;-88
2023/08/29 01:50:10;;;;;;;0.20;0.20;;;;;;;;;;6218670;23;20064;-89
2023/08/29 01:52:37;;;;;;;0.30;0.30;;;;;;;;;;6242866;23;20020;-89
2023/08/29 01:55:06;;;;;;;0.20;0.20;;;;;;;;;;6217052;23;20020;-88
2023/08/29 01:57:38;;;;;;;0.20;0.20;;;;;;;;;;6217103;23;20469;-89
2023/08/29 02:00:07;;;;;;;0.30;0.30;;;;;;;;;;6193552;23;20048;-87
2023/08/29 02:02:52;;;;;;;0.32;0.32;;;;;;;;;;6243198;23;20020;-90
2023/08/29 02:05:20;;;;;;;0.30;0.30;;;;;;;;;;6218176;23;20040;-90
2023/08/29 02:07:46;;;;;;;0.25;0.25;;;;;;;;;;6242275;23;20027;-88
2023/08/29 02:10:13;;;;;;;0.30;0.30;;;;;;;;;;6216631;23;20016;-90
2023/08/29 02:12:40;;;;;;;0.30;0.30;;;;;;;;;;6192738;23;20016;-87
2023/08/29 02:15:18;;;;;;;0.40;0.40;;;;;;;;;;6243141;23;20444;-89
2023/08/29 02:17:44;;;;;;;0.40;0.40;;;;;;;;;;6216870;23;20014;-89
2023/08/29 02:20:13;;;;;;;0.40;0.40;;;;;;;;;;6218156;23;19996;-88
2023/08/29 02:22:43;;;;;;;0.30;0.30;;;;;;;;;;6243352;23;20016;-89
2023/08/29 02:25:10;;;;;;;0.20;0.20;;;;;;;;;;6193095;23;20016;-89
2023/08/29 02:27:36;;;;;;;0.30;0.30;;;;;;;;;;6217901;23;20034;-88
2023/08/29 02:30:04;;;;;;;0.30;0.30;;;;;;;;;;6217358;23;20016;-89
2023/08/29 02:32:35;;;;;;;0.25;0.25;;;;;;;;;;6219530;23;20054;-89
2023/08/29 02:35:01;;;;;;;0.20;0.20;;;;;;;;;;6236394;23;20012;-90
2023/08/29 02:37:28;;;;;;;0.20;0.20;;;;;;;;;;6237813;23;20511;-90
2023/08/29 02:39:56;;;;;;;0.20;0.20;;;;;;;;;;6244258;23;20016;-90
2023/08/29 02:42:26;;;;;;;0.30;0.30;;;;;;;;;;6219477;23;20016;-91
2023/08/29 02:44:52;;;;;;;0.30;0.30;;;;;;;;;;6219520;23;20464;-89
2023/08/29 02:47:21;;;;;;;0.30;0.30;;;;;;;;;;6219311;23;20016;-91
2023/08/29 02:49:47;;;;;;;0.28;0.28;;;;;;;;;;6201528;23;20016;-90
2023/08/29 02:52:13;;;;;;;0.40;0.40;;;;;;;;;;6219145;23;20064;-88
2023/08/29 02:54:42;;;;;;;0.20;0.20;;;;;;;;;;6217944;23;20047;-89
2023/08/29 02:57:08;;;;;;;0.20;0.20;;;;;;;;;;6239994;23;20016;-88
2023/08/29 02:59:35;;;;;;;0.30;0.30;;;;;;;;;;6217471;23;20466;-89
2023/08/29 03:02:07;;;;;;;0.38;0.38;;;;;;;;;;6244711;23;20031;-89
2023/08/29 03:04:33;;;;;;;0.30;0.30;;;;;;;;;;6217925;23;20027;-89
2023/08/29 03:07:00;;;;;;;0.30;0.30;;;;;;;;;;6216528;23;20016;-91
2023/08/29 03:09:28;;;;;;;0.32;0.32;;;;;;;;;;6215726;23;20020;-89
2023/08/29 03:11:55;;;;;;;0.20;0.20;;;;;;;;;;6243659;23;20047;-89
2023/08/29 03:14:21;;;;;;;0.20;0.20;;;;;;;;;;6218012;23;20020;-89
2023/08/29 03:16:47;;;;;;;0.30;0.30;;;;;;;;;;6217957;23;20016;-88
2023/08/29 03:19:14;;;;;;;0.22;0.22;;;;;;;;;;6217956;23;20074;-89
2023/08/29 03:21:44;;;;;;;0.30;0.30;;;;;;;;;;6219452;23;20016;-88
2023/08/29 03:24:10;;;;;;;0.20;0.20;;;;;;;;;;6242668;23;20099;-89
2023/08/29 03:26:36;;;;;;;0.40;0.40;;;;;;;;;;6219878;23;20016;-92
2023/08/29 03:29:03;;;;;;;0.30;0.30;;;;;;;;;;6218666;23;20021;-91
2023/08/29 03:31:29;;;;;;;0.30;0.30;;;;;;;;;;6241361;23;20030;-89
2023/08/29 03:33:57;;;;;;;0.30;0.30;;;;;;;;;;6218450;23;20096;-90
2023/08/29 03:36:23;;;;;;;0.30;0.30;;;;;;;;;;6218176;23;20017;-88
2023/08/29 03:38:50;;;;;;;0.40;0.40;;;;;;;;;;6219187;23;20020;-91
2023/08/29 03:41:17;;;;;;;0.30;0.30;;;;;;;;;;6219802;23;20040;-90
2023/08/29 03:43:46;;;;;;;0.40;0.40;;;;;;;;;;6246483;23;20016;-91
2023/08/29 03:46:12;;;;;;;0.20;0.20;;;;;;;;;;6245000;23;20016;-90
2023/08/29 03:48:42;;;;;;;0.40;0.40;;;;;;;;;;6244779;23;20016;-90
2023/08/29 03:51:08;;;;;;;0.40;0.40;;;;;;;;;;6246372;23;20008;-90
2023/08/29 03:53:35;;;;;;;0.30;0.30;;;;;;;;;;6219781;23;20043;-90
2023/08/29 03:56:05;;;;;;;0.30;0.30;;;;;;;;;;6221143;22;20027;-91
2023/08/29 03:58:33;;;;;;;0.40;0.40;;;;;;;;;;6197082;23;20068;-90
2023/08/29 04:01:07;;;;;;;0.30;0.30;;;;;;;;;;6271510;23;20088;-90
2023/08/29 04:03:37;;;;;;;0.30;0.30;;;;;;;;;;6221172;23;20016;-89
2023/08/29 04:06:04;;;;;;;0.30;0.30;;;;;;;;;;6221486;23;20020;-89
2023/08/29 04:08:30;;;;;;;0.40;0.40;;;;;;;;;;6246305;23;20008;-90
2023/08/29 04:10:57;;;;;;;0.40;0.40;;;;;;;;;;6221878;23;20028;-89
2023/08/29 04:13:27;;;;;;;0.40;0.40;;;;;;;;;;6223138;23;20020;-90
2023/08/29 04:15:53;;;;;;;0.30;0.30;;;;;;;;;;6221995;23;20020;-90
2023/08/29 04:18:23;;;;;;;0.40;0.40;;;;;;;;;;6221531;23;20024;-91
2023/08/29 04:20:50;;;;;;;0.20;0.20;;;;;;;;;;6221077;23;20325;-90
2023/08/29 04:23:16;;;;;;;0.32;0.32;;;;;;;;;;6245052;23;20016;-90
2023/08/29 04:25:43;;;;;;;0.30;0.30;;;;;;;;;;6220872;23;20035;-92
2023/08/29 04:28:20;;;;;;;0.30;0.30;;;;;;;;;;6246060;23;20020;-90
2023/08/29 04:30:55;;;;;;;0.40;0.40;;;;;;;;;;6248848;23;20053;-90
2023/08/29 04:33:22;;;;;;;0.30;0.30;;;;;;;;;;6220216;23;20016;-91
2023/08/29 04:35:52;;;;;;;0.32;0.32;;;;;;;;;;6220927;23;20028;-89
2023/08/29 04:38:21;;;;;;;0.30;0.30;;;;;;;;;;6244864;23;20020;-91
2023/08/29 04:40:53;;;;;;;0.30;0.30;;;;;;;;;;6219497;23;20016;-89
2023/08/29 04:43:20;;;;;;;0.30;0.30;;;;;;;;;;6222187;23;20079;-90
2023/08/29 04:45:47;;;;;;;0.30;0.30;;;;;;;;;;6244512;23;20020;-90
2023/08/29 04:48:25;;;;;;;0.40;0.40;;;;;;;;;;6210846;23;20062;-90
2023/08/29 04:50:51;;;;;;;0.30;0.30;;;;;;;;;;6187805;23;20071;-90
2023/08/29 04:53:17;;;;;;;0.30;0.30;;;;;;;;;;6190042;23;20060;-90
2023/08/29 04:55:43;;;;;;;0.30;0.30;;;;;;;;;;6190360;23;20044;-89
2023/08/29 04:58:12;;;;;;;0.30;0.30;;;;;;;;;;6191155;23;20007;-88
2023/08/29 05:00:39;;;;;;;0.30;0.30;;;;;;;;;;6191288;23;20016;-90
2023/08/29 05:03:14;;;;;;;0.30;0.30;;;;;;;;;;6241001;23;20070;-90
2023/08/29 05:05:51;;;;;;;0.25;0.25;;;;;;;;;;6190786;23;20020;-90
2023/08/29 05:08:18;;;;;;;0.32;0.32;;;;;;;;;;6190005;23;20019;-90
2023/08/29 05:10:45;;;;;;;0.30;0.30;;;;;;;;;;6189489;23;20017;-89
2023/08/29 05:13:12;;;;;;;0.30;0.30;;;;;;;;;;6190298;23;20017;-91
2023/08/29 05:15:41;;;;;;;0.30;0.30;;;;;;;;;;6190482;23;20001;-90
2023/08/29 05:18:10;;;;;;;0.30;0.30;;;;;;;;;;6180278;23;20024;-90
2023/08/29 05:20:37;;;;;;;0.40;0.40;;;;;;;;;;6187095;23;20039;-87
2023/08/29 05:23:07;;;;;;;0.35;0.35;;;;;;;;;;6189273;23;20016;-90
2023/08/29 05:25:35;;;;;;;0.30;0.30;;;;;;;;;;6213166;23;20004;-90
2023/08/29 05:28:16;;;;;;;0.30;0.30;;;;;;;;;;6215290;23;20039;-90
2023/08/29 05:30:43;;;;;;;0.40;0.40;;;;;;;;;;6190841;23;20000;-91
2023/08/29 05:33:10;;;;;;;0.20;0.20;;;;;;;;;;6190267;23;20057;-89
2023/08/29 05:35:36;;;;;;;0.28;0.28;;;;;;;;;;6189393;23;20028;-89
2023/08/29 05:38:05;;;;;;;0.30;0.30;;;;;;;;;;6213855;23;20024;-90
2023/08/29 05:40:34;;;;;;;0.30;0.30;;;;;;;;;;6214867;23;20043;-91
2023/08/29 05:43:02;;;;;;;0.30;0.30;;;;;;;;;;6190219;23;20028;-90
2023/08/29 05:45:28;;;;;;;0.20;0.20;;;;;;;;;;6189864;23;20001;-89
2023/08/29 05:47:54;;;;;;;0.30;0.30;;;;;;;;;;6213912;23;20028;-90
2023/08/29 05:50:22;;;;;;;0.25;0.25;;;;;;;;;;6188456;23;20113;-89
2023/08/29 05:52:51;;;;;;;0.30;0.30;;;;;;;;;;6185275;23;20020;-91
2023/08/29 05:55:21;;;;;;;0.30;0.30;;;;;;;;;;6187405;23;20035;-89
2023/08/29 05:57:47;;;;;;;0.30;0.30;;;;;;;;;;6164627;23;20005;-88
2023/08/29 06:00:14;;;;;;;0.30;0.30;;;;;;;;;;6188068;23;20012;-89
2023/08/29 06:02:42;;;;;;;0.30;0.30;;;;;;;;;;6234476;23;20012;-90
2023/08/29 06:05:10;;;;;;;0.35;0.35;;;;;;;;;;6188720;23;20031;-88
2023/08/29 06:07:38;;;;;;;0.40;0.40;;;;;;;;;;6189400;23;20017;-91
2023/08/29 06:10:08;;;;;;;0.38;0.38;;;;;;;;;;6213459;23;20012;-91
2023/08/29 06:12:34;;;;;;;0.40;0.40;;;;;;;;;;6164478;23;20025;-90
2023/08/29 06:15:04;;;;;;;0.30;0.30;;;;;;;;;;6187195;23;20098;-90
2023/08/29 06:17:33;;;;;;;0.30;0.30;;;;;;;;;;6217116;23;20019;-93
2023/08/29 06:19:59;;;;;;;0.30;0.30;;;;;;;;;;6191200;23;20009;-92
2023/08/29 06:22:38;;;;;;;0.38;0.38;;;;;;;;;;6191337;23;20020;-89
2023/08/29 06:25:05;;;;;;;0.40;0.40;;;;;;;;;;6189238;23;20449;-91
2023/08/29 06:27:33;;;;;;;0.40;0.40;;;;;;;;;;6190453;23;20027;-90
2023/08/29 06:29:59;;;;;;;0.30;0.30;;;;;;;;;;6190101;23;20004;-89
2023/08/29 06:32:26;;;;;;;0.30;0.30;;;;;;;;;;6190187;23;20036;-89
2023/08/29 06:34:53;;;;;;;0.25;0.25;;;;;;;;;;6189614;23;20052;-89
2023/08/29 06:37:20;;;;;;;0.30;0.30;;;;;;;;;;6189694;23;20029;-90
2023/08/29 06:39:58;;;;;;;0.40;0.40;;;;;;;;;;6212701;23;20052;-95
2023/08/29 06:42:27;;;;;;;0.20;0.20;;;;;;;;;;6191912;23;20043;-95
2023/08/29 06:45:08;;;;;;;0.40;0.40;;;;;;;;;;6214659;23;20021;-94
2023/08/29 06:47:35;;;;;;;0.30;0.30;;;;;;;;;;6214201;23;20020;-91
2023/08/29 06:50:01;;;;;;;0.30;0.30;;;;;;;;;;6164330;23;20021;-93
2023/08/29 06:52:27;;;;;;;0.30;0.30;;;;;;;;;;6213953;23;20016;-93
2023/08/29 06:54:54;;;;;;;0.22;0.22;;;;;;;;;;6187333;23;20324;-91
2023/08/29 06:57:26;;;;;;;0.20;0.20;;;;;;;;;;6212173;23;20046;-88
2023/08/29 06:59:52;;;;;;;0.30;0.30;;;;;;;;;;6186391;23;20063;-89
2023/08/29 07:02:28;;;;;;;0.30;0.30;;;;;;;;;;6166134;23;20039;-94
2023/08/29 07:04:54;;;;;;;0.30;0.30;;;;;;;;;;6189560;23;20016;-91
2023/08/29 07:07:35;;;;;;;0.30;0.30;;;;;;;;;;6189088;23;20017;-89
2023/08/29 07:10:02;;;;;;;0.28;0.28;;;;;;;;;;6189291;23;20068;-91
2023/08/29 07:12:28;;;;;;;0.30;0.30;;;;;;;;;;6189579;23;20013;-93
2023/08/29 07:14:56;;;;;;;0.30;0.30;;;;;;;;;;6188394;23;20020;-90
2023/08/29 07:17:22;;;;;;;0.20;0.20;;;;;;;;;;6213664;23;20028;-92
2023/08/29 07:20:08;;;;;;;0.20;0.20;;;;;;;;;;6188592;23;20001;-90
2023/08/29 07:22:42;;;;;;;0.20;0.20;;;;;;;;;;6213945;23;20035;-90
2023/08/29 07:25:38;;;;;;;0.20;0.20;;;;;;;;;;6217016;23;20040;-90
2023/08/29 07:28:06;;;;;;;0.30;0.30;;;;;;;;;;6189985;23;20020;-92
2023/08/29 07:30:51;;;;;;;0.30;0.30;;;;;;;;;;6189242;23;20020;-90
2023/08/29 07:33:31;;;;;;;0.13;0.13;;;;;;;;;;6190208;23;20009;-93
2023/08/29 07:35:59;;;;;;;0.20;0.20;;;;;;;;;;6213561;23;20021;-94
2023/08/29 07:38:26;;;;;;;0.30;0.30;;;;;;;;;;6191027;23;20455;-94
2023/08/29 07:41:16;;;;;;;0.20;0.20;;;;;;;;;;6166700;23;20088;-92
2023/08/29 07:43:43;;;;;;;0.28;0.28;;;;;;;;;;6190314;23;20021;-92
2023/08/29 07:46:15;;;;;;;0.30;0.30;;;;;;;;;;6216063;23;20017;-93
2023/08/29 07:48:47;;;;;;;0.28;0.28;;;;;;;;;;6210407;23;20084;-91
2023/08/29 07:57:45;;;;;;;0.20;0.20;;;;;;;;;;6215880;23;20015;-89
2023/08/29 08:00:13;;;;;;;0.20;0.20;;;;;;;;;;6190588;23;20076;-92
2023/08/29 08:02:48;;;;;;;0.20;0.20;;;;;;;;;;6216594;23;20017;-93
2023/08/29 08:05:15;;;;;;;0.32;0.32;;;;;;;;;;6190442;23;20036;-91
2023/08/29 08:07:42;;;;;;;0.20;0.20;;;;;;;;;;6190968;23;20024;-93
2023/08/29 08:10:10;;;;;;;0.28;0.28;;;;;;;;;;6189405;23;20020;-89
2023/08/29 08:12:49;;;;;;;0.20;0.20;;;;;;;;;;6200507;22;20008;-89
2023/08/29 08:15:16;;;;;;;0.20;0.20;;;;;;;;;;6216419;23;20016;-89
2023/08/29 08:17:51;;;;;;;0.20;0.20;;;;;;;;;;6219062;23;20020;-90
2023/08/29 08:20:17;;;;;;;0.13;0.13;;;;;;;;;;6218178;23;20023;-89
2023/08/29 08:23:09;;;;;;;0.20;0.20;;;;;;;;;;6218729;23;20023;-87
2023/08/29 08:25:54;;;;;;;0.20;0.20;;;;;;;;;;6217183;23;20007;-89
2023/08/29 08:28:21;;;;;;;0.80;0.75;;;;;;;;;;6194686;23;20020;-89
2023/08/29 08:30:52;;;;;;;0.10;0.10;;;;;;;;;;6222336;22;20031;-92
2023/08/29 08:33:29;;;;;;;0.13;0.13;;;;;;;;;;6246661;23;20020;-89
2023/08/29 08:35:55;;;;;;;0.10;0.10;;;;;;;;;;6218314;23;20033;-89
2023/08/29 08:38:21;;;;;;;0.10;0.10;;;;;;;;;;6237148;23;20023;-89
2023/08/29 08:40:48;;;;;;;0.20;0.20;;;;;;;;;;6218835;23;20000;-88
2023/08/29 08:43:33;;;;;;;0.30;0.30;;;;;;;;;;6193835;23;20016;-87
2023/08/29 08:45:59;;;;;;;0.20;0.20;;;;;;;;;;6219942;23;20044;-89
2023/08/29 08:48:27;;;;;;;0.30;0.30;;;;;;;;;;6220476;23;20011;-88
2023/08/29 08:51:30;;;;;;;0.10;0.10;;;;;;;;;;6245444;23;20000;-89
2023/08/29 08:53:57;;;;;;;0.20;0.20;;;;;;;;;;6217331;23;20072;-89
2023/08/29 08:56:23;;;;;;;0.20;0.20;;;;;;;;;;6220892;23;20043;-89
2023/08/29 08:59:03;;;;;;;0.30;0.30;;;;;;;;;;6242776;22;20014;-88
2023/08/29 09:01:34;;;;;;;0.10;0.10;;;;;;;;;;6245718;23;20030;-89
2023/08/29 09:07:25;;;;;;;0.20;0.20;;;;;;;;;;6277848;23;20043;-89
2023/08/29 09:10:12;;;;;;;0.20;0.20;;;;;;;;;;6241694;23;20034;-86
2023/08/29 09:12:48;;;;;;;0.22;0.22;;;;;;;;;;6218864;23;20051;-88
2023/08/29 09:15:39;;;;;;;0.35;0.35;;;;;;;;;;6216060;23;20378;-87
2023/08/29 09:18:24;;;;;;;0.13;0.13;;;;;;;;;;6219481;23;20008;-89
2023/08/29 09:20:54;;;;;;;0.30;0.30;;;;;;;;;;6263734;23;20024;-87
2023/08/29 09:23:22;;;;;;;0.10;0.10;;;;;;;;;;6214818;23;20053;-87
2023/08/29 09:25:55;;;;;;;0.20;0.20;;;;;;;;;;6188283;23;20071;-87
2023/08/29 09:31:48;;;;;;;0.20;0.20;;;;;;;;;;6240838;23;20024;-86
2023/08/29 09:34:30;;;;;;;0.17;0.17;;;;;;;;;;6215106;23;20020;-84
2023/08/29 09:37:00;;;;;;;0.20;0.20;;;;;;;;;;6213228;23;20019;-88
2023/08/29 09:39:29;;;;;;;0.20;0.20;;;;;;;;;;6239942;23;20415;-85
2023/08/29 09:42:07;;;;;;;0.20;0.20;;;;;;;;;;6215447;23;20016;-85
2023/08/29 09:44:37;;;;;;;0.20;0.20;;;;;;;;;;6240996;23;20006;-87
2023/08/29 09:47:11;;;;;;;0.20;0.20;;;;;;;;;;6216480;23;20068;-87
2023/08/29 09:49:47;;;;;;;0.20;0.20;;;;;;;;;;6220527;23;20021;-89
2023/08/29 09:52:17;;;;;;;0.20;0.20;;;;;;;;;;6218285;23;20060;-88
2023/08/29 09:54:54;;;;;;;0.30;0.30;;;;;;;;;;6215419;23;20062;-90
2023/08/29 09:57:24;;;;;;;0.20;0.20;;;;;;;;;;6217967;23;20020;-89
2023/08/29 10:00:04;;;;;;;0.30;0.30;;;;;;;;;;6219855;23;20016;-88
2023/08/29 10:02:31;;;;;;;0.20;0.20;;;;;;;;;;6217591;23;20418;-88
2023/08/29 10:05:08;;;;;;;0.25;0.25;;;;;;;;;;6244244;23;20012;-88
2023/08/29 10:07:42;;;;;;;0.30;0.30;;;;;;;;;;6209294;23;20012;-88
2023/08/29 10:10:10;;;;;;;0.30;0.30;;;;;;;;;;6239496;23;20016;-87
2023/08/29 10:12:41;;;;;;;0.20;0.20;;;;;;;;;;6215817;23;20054;-88
2023/08/29 10:15:09;;;;;;;0.10;0.10;;;;;;;;;;6240851;23;20016;-87
2023/08/29 10:17:39;;;;;;;0.20;0.20;;;;;;;;;;6215291;23;20016;-88
2023/08/29 10:20:14;;;;;;;0.30;0.30;;;;;;;;;;6215293;23;20016;-87
2023/08/29 10:22:48;;;;;;;0.40;0.40;;;;;;;;;;6214046;23;20016;-86
2023/08/29 10:25:20;;;;;;;0.17;0.17;;;;;;;;;;6214686;23;20023;-86
2023/08/29 10:27:47;;;;;;;0.20;0.20;;;;;;;;;;6242281;23;20023;-86
2023/08/29 10:30:16;;;;;;;0.10;0.10;;;;;;;;;;6215635;23;20016;-86
2023/08/29 10:32:44;;;;;;;0.20;0.20;;;;;;;;;;6217085;23;20007;-86
2023/08/29 10:35:20;;;;;;;0.20;0.20;;;;;;;;;;6237173;23;20020;-86
2023/08/29 10:37:51;;;;;;;0.20;0.20;;;;;;;;;;6241952;23;20016;-84
2023/08/29 10:40:19;;;;;;;0.17;0.17;;;;;;;;;;6239048;23;20020;-87
2023/08/29 10:42:49;;;;;;;0.10;0.10;;;;;;;;;;6214786;23;20016;-86
2023/08/29 10:45:18;;;;;;;0.20;0.20;;;;;;;;;;6215181;23;20064;-86
2023/08/29 10:47:54;;;;;;;0.20;0.20;;;;;;;;;;6241903;23;20390;-85
2023/08/29 10:50:21;;;;;;;0.20;0.20;;;;;;;;;;6215288;23;20097;-87
2023/08/29 10:52:50;;;;;;;0.20;0.20;;;;;;;;;;6213416;23;20020;-85
2023/08/29 10:55:27;;;;;;;0.30;0.30;;;;;;;;;;6215125;23;20359;-86
2023/08/29 10:57:58;;;;;;;0.30;0.30;;;;;;;;;;6215574;23;20016;-87
2023/08/29 11:00:56;;;;;;;0.10;0.10;;;;;;;;;;6245500;23;20000;-86
2023/08/29 11:03:42;;;;;;;0.30;0.30;;;;;;;;;;6217234;23;20042;-86
2023/08/29 11:06:08;;;;;;;0.17;0.17;;;;;;;;;;6216266;23;20039;-86
2023/08/29 11:08:34;;;;;;;0.20;0.20;;;;;;;;;;6214338;23;20016;-86
2023/08/29 11:11:14;;;;;;;0.10;0.10;;;;;;;;;;6238663;23;20024;-86
2023/08/29 11:14:19;;;;;;;0.20;0.20;;;;;;;;;;6238710;23;20082;-85
2023/08/29 11:17:08;;;;;;;0.10;0.10;;;;;;;;;;6238731;23;20379;-85
2023/08/29 11:19:39;;;;;;;0.20;0.20;;;;;;;;;;6213740;23;20066;-86
2023/08/29 11:22:06;;;;;;;0.20;0.20;;;;;;;;;;6238415;23;20016;-86
2023/08/29 11:24:34;;;;;;;0.30;0.30;;;;;;;;;;6212799;23;20044;-84
2023/08/29 11:27:04;;;;;;;0.10;0.10;;;;;;;;;;6210522;23;20022;-85
2023/08/29 11:29:37;;;;;;;0.00;0.00;;;;;;;;;;6213931;23;20061;-84
2023/08/29 11:32:03;;;;;;;0.32;0.32;;;;;;;;;;6215087;23;20465;-86
2023/08/29 11:34:30;;;;;;;0.30;0.30;;;;;;;;;;6236229;23;20024;-86
2023/08/29 11:36:56;;;;;;;0.25;0.25;;;;;;;;;;6237533;23;20027;-86
2023/08/29 11:39:26;;;;;;;0.20;0.20;;;;;;;;;;6238547;23;19999;-85
2023/08/29 11:41:53;;;;;;;0.20;0.20;;;;;;;;;;6217307;23;20024;-86
2023/08/29 11:44:27;;;;;;;0.20;0.20;;;;;;;;;;6192660;23;20067;-86
2023/08/29 11:46:57;;;;;;;0.20;0.20;;;;;;;;;;6217629;23;20070;-88
2023/08/29 11:49:25;;;;;;;0.10;0.10;;;;;;;;;;6244250;23;20012;-89
2023/08/29 11:51:53;;;;;;;0.20;0.20;;;;;;;;;;6216979;23;20016;-86
2023/08/29 11:54:41;;;;;;;0.10;0.10;;;;;;;;;;6216270;23;20035;-87
2023/08/29 11:57:10;;;;;;;0.20;0.20;;;;;;;;;;6216551;23;20042;-87
2023/08/29 11:59:41;;;;;;;0.20;0.20;;;;;;;;;;6242396;23;20024;-85
2023/08/29 12:02:17;;;;;;;0.20;0.20;;;;;;;;;;6241672;23;20051;-88
2023/08/29 12:04:49;;;;;;;0.10;0.10;;;;;;;;;;6217267;23;20072;-90
2023/08/29 12:07:18;;;;;;;0.10;0.10;;;;;;;;;;6195014;23;20016;-88
2023/08/29 12:10:09;;;;;;;0.20;0.20;;;;;;;;;;6133070;23;20040;-90
2023/08/29 12:12:36;;;;;;;0.20;0.20;;;;;;;;;;6199232;23;20064;-88
2023/08/29 12:15:11;;;;;;;0.20;0.20;;;;;;;;;;6240091;23;20007;-86
2023/08/29 12:17:40;;;;;;;0.20;0.20;;;;;;;;;;6216995;23;20000;-89
2023/08/29 12:20:12;;;;;;;0.10;0.10;;;;;;;;;;6243578;23;20020;-88
2023/08/29 12:22:39;;;;;;;0.15;0.15;;;;;;;;;;6218446;23;20012;-90
2023/08/29 12:25:06;;;;;;;0.20;0.20;;;;;;;;;;6219167;23;20023;-88
2023/08/29 12:27:49;;;;;;;0.10;0.10;;;;;;;;;;6246932;23;20034;-89
2023/08/29 12:30:22;;;;;;;0.17;0.17;;;;;;;;;;6254292;23;20346;-87
2023/08/29 12:33:12;;;;;;;0.10;0.10;;;;;;;;;;6265637;23;20020;-87
2023/08/29 12:35:39;;;;;;;0.10;0.10;;;;;;;;;;6194393;23;20027;-89
2023/08/29 12:38:05;;;;;;;0.20;0.20;;;;;;;;;;6220403;23;20008;-91
2023/08/29 12:40:31;;;;;;;0.10;0.10;;;;;;;;;;6218741;23;20008;-88
2023/08/29 12:42:58;;;;;;;0.03;0.03;;;;;;;;;;6218817;23;20047;-89
2023/08/29 12:45:28;;;;;;;0.20;0.20;;;;;;;;;;6245370;23;20016;-88
2023/08/29 12:47:57;;;;;;;0.22;0.22;;;;;;;;;;6217367;23;20020;-88
2023/08/29 12:50:24;;;;;;;0.10;0.10;;;;;;;;;;6244695;23;20011;-88
2023/08/29 12:52:50;;;;;;;0.10;0.10;;;;;;;;;;6217336;23;20022;-87
2023/08/29 12:55:17;;;;;;;0.20;0.20;;;;;;;;;;6218814;23;20022;-89
2023/08/29 12:57:48;;;;;;;0.20;0.20;;;;;;;;;;6245114;23;20336;-88
2023/08/29 13:00:21;;;;;;;0.10;0.10;;;;;;;;;;6221053;23;20030;-90
2023/08/29 13:02:48;;;;;;;0.20;0.20;;;;;;;;;;6222043;23;20031;-87
2023/08/29 13:05:18;;;;;;;0.10;0.10;;;;;;;;;;6267312;23;20034;-86
2023/08/29 13:07:47;;;;;;;0.10;0.10;;;;;;;;;;6218450;23;20046;-85
2023/08/29 13:10:13;;;;;;;0.20;0.20;;;;;;;;;;6214673;23;20020;-88
2023/08/29 13:12:40;;;;;;;0.10;0.10;;;;;;;;;;6217561;23;20020;-89
2023/08/29 13:15:16;;;;;;;0.03;0.03;;;;;;;;;;6245198;23;20012;-87
2023/08/29 13:17:42;;;;;;;0.10;0.10;;;;;;;;;;6221575;23;20008;-89
2023/08/29 13:23:11;;;;;;;0.10;0.10;;;;;;;;;;6238089;23;20039;-86
2023/08/29 13:25:45;;;;;;;0.20;0.20;;;;;;;;;;6240286;23;20016;-85
2023/08/29 13:28:11;;;;;;;0.00;0.00;;;;;;;;;;6193777;23;20043;-87
2023/08/29 13:30:40;;;;;;;0.13;0.13;;;;;;;;;;6218671;23;20004;-89
2023/08/29 13:33:20;;;;;;;0.08;0.08;;;;;;;;;;6244441;23;20156;-88
2023/08/29 13:39:19;;;;;;;0.10;0.10;;;;;;;;;;6184665;23;19931;-88
2023/08/29 13:41:48;;;;;;;0.20;0.20;;;;;;;;;;6229139;23;20020;-88
2023/08/29 13:44:20;;;;;;;0.00;0.00;;;;;;;;;;6243828;23;20024;-87
2023/08/29 13:46:46;;;;;;;0.10;0.10;;;;;;;;;;6215323;23;20054;-86
2023/08/29 13:49:14;;;;;;;0.10;0.10;;;;;;;;;;6216696;23;20016;-87
2023/08/29 13:51:40;;;;;;;0.10;0.10;;;;;;;;;;6215312;23;20016;-88
2023/08/29 13:54:29;;;;;;;0.10;0.10;;;;;;;;;;6245665;23;20011;-88
2023/08/29 13:56:58;;;;;;;0.20;0.20;;;;;;;;;;6220961;23;20063;-88
2023/08/29 13:59:24;;;;;;;0.00;0.00;;;;;;;;;;6218593;23;20020;-87
2023/08/29 14:01:50;;;;;;;0.10;0.10;;;;;;;;;;6242144;23;20047;-86
2023/08/29 14:04:16;;;;;;;0.08;0.08;;;;;;;;;;6216029;23;20023;-86
2023/08/29 14:06:43;;;;;;;0.20;0.20;;;;;;;;;;6239944;23;20040;-87
2023/08/29 14:09:10;;;;;;;0.08;0.08;;;;;;;;;;6214568;23;20077;-86
2023/08/29 14:11:36;;;;;;;0.10;0.10;;;;;;;;;;6215020;23;20027;-86
2023/08/29 14:14:03;;;;;;;0.20;0.20;;;;;;;;;;6215975;23;20024;-86
2023/08/29 14:16:37;;;;;;;0.00;0.00;;;;;;;;;;6216460;23;20031;-86
2023/08/29 14:19:10;;;;;;;0.10;0.10;;;;;;;;;;6240104;23;20023;-86
2023/08/29 14:21:36;;;;;;;0.10;0.10;;;;;;;;;;6213975;23;20022;-86
2023/08/29 14:24:36;;;;;;;0.20;0.20;;;;;;;;;;6214765;23;20016;-86
2023/08/29 14:27:21;;;;;;;0.10;0.10;;;;;;;;;;6215321;23;20034;-84
2023/08/29 14:29:49;;;;;;;0.10;0.10;;;;;;;;;;6217688;23;20050;-85
2023/08/29 14:32:19;;;;;;;0.15;0.15;;;;;;;;;;6238291;23;20184;-84
2023/08/29 14:34:45;;;;;;;0.30;0.30;;;;;;;;;;6212658;23;20020;-85
2023/08/29 14:37:12;;;;;;;0.10;0.10;;;;;;;;;;6206804;23;20016;-85
2023/08/29 14:39:40;;;;;;;0.20;0.20;;;;;;;;;;6208926;23;20027;-83
2023/08/29 14:42:08;;;;;;;0.10;0.10;;;;;;;;;;6214927;23;20070;-86
2023/08/29 14:44:35;;;;;;;0.10;0.10;;;;;;;;;;6187662;23;20031;-85
2023/08/29 14:47:01;;;;;;;0.10;0.10;;;;;;;;;;6213895;23;20018;-86
2023/08/29 14:49:27;;;;;;;0.10;0.10;;;;;;;;;;6214848;23;20020;-86
2023/08/29 14:51:54;;;;;;;0.20;0.20;;;;;;;;;;6261393;23;20019;-86
2023/08/29 14:54:20;;;;;;;0.10;0.10;;;;;;;;;;6211983;23;20015;-85
2023/08/29 14:56:46;;;;;;;0.10;0.10;;;;;;;;;;6239880;23;20020;-86
2023/08/29 14:59:26;;;;;;;0.17;0.17;;;;;;;;;;6237760;23;20027;-85
2023/08/29 15:01:53;;;;;;;0.10;0.10;;;;;;;;;;6211187;23;20016;-86
2023/08/29 15:04:19;;;;;;;0.13;0.13;;;;;;;;;;6211387;23;20020;-85
2023/08/29 15:06:51;;;;;;;0.10;0.10;;;;;;;;;;6265141;23;20038;-86
2023/08/29 15:09:18;;;;;;;0.20;0.20;;;;;;;;;;6212497;23;20351;-86
2023/08/29 15:11:44;;;;;;;0.30;0.30;;;;;;;;;;6212496;23;20020;-86
2023/08/29 15:14:13;;;;;;;0.10;0.10;;;;;;;;;;6214074;23;20031;-86
2023/08/29 15:16:43;;;;;;;0.15;0.15;;;;;;;;;;6266944;23;20016;-86
2023/08/29 15:19:09;;;;;;;0.20;0.20;;;;;;;;;;6237534;23;20035;-85
2023/08/29 15:21:42;;;;;;;0.10;0.10;;;;;;;;;;6238444;23;20008;-85
2023/08/29 15:24:12;;;;;;;0.10;0.10;;;;;;;;;;6236939;23;20012;-85